Latest Weather Observations for Hamilton

IDV60801

Issued at 8:05 pm EDT Sunday 26 October 2014 (issued every 30 minutes, with the page automatically refreshed every 10 minutes)

About weather observations | Map of weather stations | Latest weather observations for VIC | Other Formats
Station Details ID: 090173 Name: HAMILTON AIRPORT Lat: -37.65 Lon: 142.06 Height: 241.1 m
Data from the previous 72 hours. | See also: Recent months at Hamilton
Date/Time
EDT
Temp
°C
App
Temp
°C
Dew
Point
Rel
Hum
%
Delta-T
°C
Wind Press
QNH
hPa
Press
MSL
hPa
Rain
since 9 am
mm
Dir
 
Spd
km/h
Gust
km/h
Spd
kts
Gust
kts
26/08:00pm 22.9 19.2 10.3 45 7.0 NNW 20 26 11 14 1007.1 1007.0 0.0
26/07:30pm 22.9 19.3 9.7 43 7.3 N 19 22 10 12 1006.9 1006.8 0.0
26/07:00pm 23.9 19.6 9.5 40 7.9 N 22 30 12 16 1006.8 1006.7 0.0
26/06:30pm 24.9 20.7 9.6 38 8.5 N 22 32 12 17 1006.9 1006.8 0.0
26/06:00pm 25.1 19.6 9.0 36 8.8 N 28 33 15 18 1007.5 1007.4 0.0
26/05:30pm 25.4 20.9 8.4 34 9.2 N 22 28 12 15 1007.9 1007.8 0.0
26/05:00pm 23.9 19.5 9.1 39 8.1 NNW 22 30 12 16 1008.4 1008.4 0.0
26/04:30pm 24.1 18.6 7.7 35 8.7 NNW 26 33 14 18 1008.9 1008.9 0.0
26/04:00pm 24.3 18.6 8.3 36 8.6 NNW 28 32 15 17 1009.2 1009.2 0.0
26/03:30pm 24.3 19.7 8.3 36 8.6 N 22 32 12 17 1009.7 1009.7 0.0
26/03:00pm 24.0 19.9 8.8 38 8.3 N 20 28 11 15 1010.0 1010.0 0.0
26/02:30pm 24.2 20.2 9.0 38 8.3 N 20 28 11 15 1010.3 1010.3 0.0
26/02:00pm 22.9 19.0 9.3 42 7.4 N 20 28 11 15 1011.0 1010.9 0.0
26/01:30pm 22.3 19.1 9.8 45 6.8 N 17 24 9 13 1011.6 1011.5 0.0
26/01:00pm 20.5 17.7 10.0 51 5.7 N 15 20 8 11 1012.4 1012.4 0.0
26/12:30pm 19.5 17.7 10.8 57 4.8 NNW 11 22 6 12 1013.3 1013.3 0.0
26/12:00pm 17.7 15.6 11.0 65 3.7 NNW 13 19 7 10 1013.5 1013.5 0.0
26/11:30am 16.5 14.5 11.4 72 2.8 N 13 19 7 10 1013.9 1013.9 0.0
26/11:00am 16.4 14.1 11.8 74 2.5 E 15 19 8 10 1013.5 1013.5 0.0
26/10:30am 14.6 11.2 10.4 76 2.2 ESE 19 24 10 13 1013.8 1013.8 0.0
26/10:00am 13.7 11.4 10.5 81 1.7 SE 13 17 7 9 1014.5 1014.5 0.0
26/09:30am 12.9 10.1 10.1 83 1.5 SE 15 20 8 11 1014.0 1014.0 0.0
26/09:03am 13.3 11.0 10.3 82 1.6 SE 13 17 7 9 1014.4 1014.4 0.0
26/09:00am 13.2 10.5 10.2 82 1.6 SE 15 17 8 9 1014.3 1014.3 0.0
26/08:30am 12.5 10.3 10.7 89 0.9 SE 13 19 7 10 1013.9 1013.9 0.0
26/08:00am 11.4 8.5 10.9 97 0.3 ESE 17 22 9 12 1013.4 1013.4 0.0
26/07:30am 10.4 7.7 10.2 99 0.1 E 15 19 8 10 1013.5 1013.5 0.0
26/07:00am 9.9 7.4 9.8 99 0.1 ESE 13 17 7 9 1013.7 1013.7 0.0
26/06:30am 9.8 7.3 9.7 99 0.1 E 13 20 7 11 1013.5 1013.5 0.0
26/06:00am 9.8 6.5 9.7 99 0.1 E 17 24 9 13 1013.0 1013.0 0.0
26/05:30am 10.0 7.2 9.9 99 0.1 ESE 15 20 8 11 1013.7 1013.7 0.0
26/05:00am 10.2 7.4 10.0 99 0.1 SE 15 19 8 10 1013.7 1013.7 0.0
26/04:30am 10.4 7.7 10.2 99 0.1 ESE 15 20 8 11 1013.3 1013.3 0.0
26/04:00am 10.6 8.3 10.3 98 0.2 ESE 13 19 7 10 1013.5 1013.5 0.0
26/03:30am 10.6 7.9 10.3 98 0.2 ESE 15 19 8 10 1013.6 1013.6 0.0
26/03:00am 10.5 8.1 10.0 97 0.3 SE 13 19 7 10 1013.9 1013.9 0.0
26/02:30am 10.4 7.9 9.8 96 0.3 SE 13 17 7 9 1014.1 1014.1 0.0
26/02:00am 10.5 7.6 9.7 95 0.4 ESE 15 22 8 12 1014.5 1014.5 0.0
26/01:30am 10.5 7.2 9.7 95 0.4 SE 17 22 9 12 1014.8 1014.8 0.0
26/01:00am 10.5 7.6 9.6 94 0.5 SE 15 22 8 12 1015.4 1015.3 0.0
26/12:30am 10.4 7.1 9.5 94 0.5 ESE 17 24 9 13 1015.0 1015.0 0.0
26/12:00am 10.5 7.2 9.6 94 0.5 ESE 17 20 9 11 1015.8 1015.8 0.0
 
Date/Time
EDT
Temp
°C
App
Temp
°C
Dew
Point
Rel
Hum
%
Delta-T
°C
Wind Press
QNH
hPa
Press
MSL
hPa
Rain
since 9 am
mm
Dir
 
Spd
km/h
Gust
km/h
Spd
kts
Gust
kts
25/11:30pm 10.3 7.7 9.5 95 0.4 SE 13 19 7 10 1016.2 1016.2 0.0
25/11:00pm 9.7 6.2 8.8 94 0.4 SE 17 22 9 12 1016.0 1016.0 0.0
25/10:30pm 10.0 6.9 8.9 93 0.5 SE 15 20 8 11 1016.5 1016.5 0.0
25/10:21pm 10.4 7.4 9.3 93 0.6 SE 15 20 8 11 1016.6 1016.6 0.0
25/10:00pm 10.3 7.3 9.2 93 0.6 SE 15 20 8 11 1016.8 1016.8 0.0
25/09:30pm 10.6 7.7 9.5 93 0.6 SSE 15 19 8 10 1016.6 1016.6 0.0
25/09:00pm 10.2 7.5 9.0 92 0.6 SE 13 17 7 9 1016.5 1016.5 0.0
25/08:30pm 10.6 7.5 9.0 90 0.8 SSE 15 19 8 10 1016.6 1016.6 0.0
25/08:00pm 11.6 8.6 9.3 86 1.2 SSE 15 19 8 10 1016.6 1016.6 0.0
25/07:30pm 13.2 9.6 9.8 80 1.8 SSE 19 20 10 11 1016.3 1016.3 0.0
25/07:00pm 14.4 10.7 10.2 76 2.2 SE 20 26 11 14 1015.9 1015.9 0.0
25/06:30pm 15.6 12.1 11.0 74 2.5 SE 20 26 11 14 1015.5 1015.5 0.0
25/06:00pm 16.0 11.8 11.2 73 2.6 SE 24 30 13 16 1015.4 1015.3 0.0
25/05:30pm 17.0 12.9 11.5 70 3.0 SSE 24 32 13 17 1015.5 1015.5 0.0
25/05:00pm 18.1 14.9 11.9 67 3.4 SSE 20 28 11 15 1015.3 1015.2 0.0
25/04:30pm 18.7 15.1 11.8 64 3.8 S 22 30 12 16 1015.4 1015.3 0.0
25/04:00pm 17.7 13.9 11.3 66 3.5 SSE 22 32 12 17 1015.4 1015.3 0.0
25/03:30pm 18.7 15.5 11.8 64 3.8 SE 20 24 11 13 1015.1 1015.1 0.0
25/03:00pm 20.3 17.4 12.8 62 4.3 SE 20 24 11 13 1015.5 1015.5 0.0
25/02:30pm 19.7 16.8 12.9 65 3.9 SSE 20 28 11 15 1015.6 1015.6 0.0
25/02:00pm 19.5 16.6 13.0 66 3.7 SSE 20 30 11 16 1016.0 1016.0 0.0
25/01:30pm 18.3 15.9 11.4 64 3.8 SSE 15 20 8 11 1016.2 1016.2 0.0
25/01:00pm 18.0 15.1 12.2 69 3.2 SSE 19 28 10 15 1016.4 1016.4 0.0
25/12:30pm 17.2 13.9 11.0 67 3.4 ESE 19 26 10 14 1016.7 1016.7 0.0
25/12:00pm 16.1 12.6 10.8 71 2.9 ESE 20 28 11 15 1017.1 1017.1 0.0
25/11:30am 15.3 11.7 10.7 74 2.5 E 20 22 11 12 1017.3 1017.3 0.0
25/11:00am 14.4 10.8 10.4 77 2.1 ESE 20 28 11 15 1017.5 1017.5 0.0
25/10:36am 14.3 10.6 10.1 76 2.2 ESE 20 28 11 15 1017.5 1017.5 0.0
25/10:30am 14.2 10.5 10.2 77 2.1 ESE 20 28 11 15 1017.5 1017.5 0.0
25/10:00am 13.3 8.8 10.1 81 1.7 ESE 24 30 13 16 1017.2 1017.2 0.0
25/09:30am 13.1 9.4 10.1 82 1.6 SE 20 32 11 17 1017.5 1017.5 0.0
25/09:00am 12.3 8.1 9.9 85 1.2 SE 22 28 12 15 1017.5 1017.5 0.0
25/08:30am 11.9 8.1 9.8 87 1.1 SE 20 28 11 15 1017.5 1017.5 0.0
25/08:00am 11.4 7.5 9.5 88 1.0 SE 20 26 11 14 1017.5 1017.5 0.0
25/07:30am 11.3 8.0 9.7 90 0.8 ESE 17 26 9 14 1017.3 1017.3 0.0
25/07:00am 11.1 7.8 9.7 91 0.7 ESE 17 22 9 12 1016.8 1016.8 0.0
25/06:30am 10.8 8.2 9.4 91 0.7 SE 13 19 7 10 1016.6 1016.6 0.0
25/06:00am 10.9 7.2 9.5 91 0.7 SSE 19 24 10 13 1016.4 1016.4 0.0
25/05:30am 10.8 7.2 9.9 94 0.5 SE 19 24 10 13 1016.4 1016.4 0.0
25/05:00am 11.2 8.0 10.1 93 0.6 SSE 17 20 9 11 1016.3 1016.3 0.0
25/04:30am 11.2 8.8 10.1 93 0.6 SE 13 17 7 9 1016.2 1016.2 0.0
25/04:00am 11.3 8.5 10.0 92 0.7 SE 15 20 8 11 1016.3 1016.3 0.0
25/03:30am 11.4 8.7 10.3 93 0.6 SE 15 20 8 11 1016.4 1016.4 0.0
25/03:00am 11.6 9.4 10.7 94 0.5 SSE 13 17 7 9 1016.3 1016.3 0.0
25/02:30am 11.7 9.0 10.4 92 0.7 S 15 22 8 12 1016.4 1016.4 0.0
25/02:00am 11.7 9.0 10.4 92 0.7 S 15 22 8 12 1016.8 1016.8 0.0
25/01:30am 11.8 9.1 10.4 91 0.7 S 15 19 8 10 1017.0 1017.0 0.0
25/01:00am 12.1 9.4 10.5 90 0.8 S 15 20 8 11 1017.1 1017.1 0.0
25/12:30am 12.1 9.1 10.7 91 0.7 S 17 20 9 11 1017.3 1017.3 0.0
25/12:00am 12.2 9.6 10.8 91 0.7 SSW 15 22 8 12 1017.2 1017.2 0.0
 
Date/Time
EDT
Temp
°C
App
Temp
°C
Dew
Point
Rel
Hum
%
Delta-T
°C
Wind Press
QNH
hPa
Press
MSL
hPa
Rain
since 9 am
mm
Dir
 
Spd
km/h
Gust
km/h
Spd
kts
Gust
kts
24/11:30pm 12.0 9.5 11.1 94 0.5 S 15 22 8 12 1017.1 1017.1 0.0
24/11:00pm 11.8 10.1 11.2 96 0.3 S 11 15 6 8 1017.0 1017.0 0.0
24/10:31pm 11.2 8.9 10.6 96 0.3 SSW 13 15 7 8 1016.9 1016.9 0.0
24/10:30pm 11.2 8.9 10.6 96 0.3 SSW 13 15 7 8 1016.9 1016.9 0.0
24/10:00pm 11.4 8.3 10.3 93 0.6 SSW 17 20 9 11 1016.6 1016.6 0.0
24/09:30pm 12.5 9.6 11.1 91 0.7 SSW 17 20 9 11 1016.4 1016.4 0.0
24/09:00pm 13.8 10.6 11.8 88 1.1 SSW 20 24 11 13 1015.9 1015.9 0.0
24/08:30pm 14.6 11.8 12.6 88 1.1 SW 19 22 10 12 1015.4 1015.3 0.0
24/08:00pm 15.6 12.6 12.7 83 1.6 SSW 20 26 11 14 1014.9 1014.9 0.0
24/07:30pm 18.3 14.7 13.2 72 2.9 SSW 24 33 13 18 1014.2 1014.2 0.0
24/07:00pm 22.5 19.4 10.3 46 6.7 WSW 17 22 9 12 1013.4 1013.4 0.0
24/06:30pm 23.4 20.2 11.1 46 6.9 W 19 24 10 13 1013.1 1013.1 0.0
24/06:00pm 24.0 19.9 11.3 45 7.2 W 24 32 13 17 1012.8 1012.8 0.0
24/05:30pm 24.8 21.2 11.7 44 7.5 W 22 30 12 16 1012.5 1012.5 0.0
24/05:00pm 25.0 21.1 12.2 44 7.4 W 24 35 13 19 1012.6 1012.6 0.0
24/04:30pm 25.3 21.8 12.2 44 7.6 W 22 30 12 16 1012.5 1012.5 0.0
24/04:00pm 24.8 20.1 12.1 45 7.3 WNW 28 37 15 20 1012.6 1012.6 0.0
24/03:30pm 25.1 20.9 12.3 45 7.4 W 26 37 14 20 1012.5 1012.5 0.0
24/03:00pm 25.1 21.0 12.7 46 7.2 WNW 26 35 14 19 1012.5 1012.5 0.0
24/02:30pm 24.9 20.9 11.8 44 7.5 W 24 35 13 19 1012.7 1012.7 0.0
24/02:00pm 25.4 21.4 10.4 39 8.4 W 22 28 12 15 1012.6 1012.6 0.0
24/01:30pm 25.0 21.8 13.2 48 6.9 WNW 22 30 12 16 1012.6 1012.6 0.0
24/01:00pm 24.7 21.6 14.5 53 6.1 WNW 24 32 13 17 1012.7 1012.7 0.0
24/12:30pm 25.1 21.2 13.3 48 7.0 WNW 26 35 14 19 1012.8 1012.8 0.0
24/12:00pm 24.4 21.7 14.5 54 5.9 NW 22 33 12 18 1013.0 1013.0 0.0
24/11:30am 23.6 20.8 14.3 56 5.5 NNW 22 32 12 17 1012.8 1012.8 0.0
24/11:00am 21.7 21.0 16.4 72 3.2 WNW 15 22 8 12 1013.2 1013.2 0.0
24/10:30am 19.0 18.3 15.3 79 2.2 NNW 13 17 7 9 1013.0 1013.0 0.0
24/10:00am 17.8 17.3 14.9 83 1.7 NNW 11 15 6 8 1012.9 1012.9 0.0
24/09:30am 16.2 16.0 15.7 97 0.3 N 11 13 6 7 1012.8 1012.8 0.0
24/09:00am 14.9 14.7 14.7 99 0.1 NNW 9 11 5 6 1012.8 1012.8 0.0
24/08:30am 14.1 13.3 13.9 99 0.1 N 11 13 6 7 1012.8 1012.8 0.0
24/08:00am 13.4 12.7 13.2 99 0.1 N 9 13 5 7 1012.7 1012.7 0.0
24/07:30am 12.6 11.3 12.4 99 0.1 NNW 11 13 6 7 1012.6 1012.6 0.0
24/07:11am 10.7 8.8 10.5 99 0.1 N 11 13 6 7 1012.3 1012.3 0.0
24/07:00am 10.4 8.4 10.2 99 0.1 N 11 13 6 7 1012.2 1012.2 0.0
24/06:30am 9.7 7.9 9.6 99 0.1 N 9 9 5 5 1012.1 1012.1 0.0
24/06:00am 9.5 8.1 9.4 99 0.1 NNE 7 7 4 4 1012.1 1012.1 0.0
24/05:30am 10.8 11.0 10.6 99 0.1 CALM 0 0 0 0 1012.1 1012.1 0.0
24/05:00am 10.5 10.6 10.3 99 0.1 CALM 0 0 0 0 1012.1 1012.1 0.0
24/04:30am 10.7 9.6 10.5 99 0.1 NNE 7 9 4 5 1012.0 1012.0 0.0
24/04:13am 11.4 9.7 11.2 99 0.1 NE 11 13 6 7 1012.0 1012.0 0.0
24/04:06am 11.6 9.6 11.4 99 0.1 ENE 13 15 7 8 1011.9 1011.9 0.0
24/04:00am 11.9 10.0 11.7 99 0.1 ENE 13 15 7 8 1012.0 1012.0 0.0
24/03:30am 11.3 8.8 11.1 99 0.1 E 15 17 8 9 1012.3 1012.3 0.0
24/03:00am 11.4 8.6 11.2 99 0.1 ESE 17 19 9 10 1012.6 1012.6 0.0
24/02:30am 11.6 9.2 11.4 99 0.1 ESE 15 17 8 9 1012.9 1012.9 0.0
24/02:00am 12.0 9.7 11.8 99 0.1 E 15 17 8 9 1013.1 1013.1 0.0
24/01:30am 12.2 10.0 12.0 99 0.1 ESE 15 17 8 9 1013.4 1013.4 0.0
24/01:00am 12.7 9.9 12.5 99 0.1 ESE 19 22 10 12 1013.6 1013.6 0.0
24/12:30am 12.7 9.9 12.5 99 0.1 ESE 19 22 10 12 1014.0 1014.0 0.0
24/12:00am 12.8 9.8 12.6 99 0.1 ESE 20 24 11 13 1014.3 1014.3 0.0
 
Date/Time
EDT
Temp
°C
App
Temp
°C
Dew
Point
Rel
Hum
%
Delta-T
°C
Wind Press
QNH
hPa
Press
MSL
hPa
Rain
since 9 am
mm
Dir
 
Spd
km/h
Gust
km/h
Spd
kts
Gust
kts
23/11:30pm 13.0 9.7 12.8 99 0.1 E 22 28 12 15 1014.5 1014.5 0.0
23/11:00pm 13.1 8.7 12.9 99 0.1 E 28 35 15 19 1014.7 1014.7 0.0
23/10:35pm 13.0 8.8 12.5 97 0.3 E 26 33 14 18 1014.9 1014.9 0.0
23/10:30pm 13.2 9.1 12.7 97 0.3 ESE 26 33 14 18 1014.9 1014.9 0.0
23/10:00pm 13.4 9.7 12.6 95 0.4 ESE 24 32 13 17 1015.1 1015.1 0.0
23/09:30pm 13.8 10.4 12.5 92 0.7 ESE 22 28 12 15 1015.1 1015.1 0.0
23/09:00pm 14.2 10.8 12.6 90 0.9 ESE 22 28 12 15 1015.0 1015.0 0.0
23/08:30pm 14.9 11.9 12.6 86 1.3 SE 20 24 11 13 1014.8 1014.8 0.0

Other Formats:

Comma delimited format used in spreadsheet applications
http://www.bom.gov.au/fwo/IDV60801/IDV60801.94829.axf

JavaScript Object Notation format (JSON) in row-major order
http://www.bom.gov.au/fwo/IDV60801/IDV60801.94829.json